Terminal Aerodrome Forecast
Issued by NWS Wichita, KS

Home | Current Version | Previous Version | Text Only | Print | Product List | Glossary On
Versions: 1 2 3 4 5 6 7 8 9 10 11 12 13 14 15 16 17 18 19 20 21 22
575
FTUS43 KICT 270200 AAB
TAFICT
TAF AMD
KICT 270200Z 2702/2724 12007KT P6SM VCTS SCT070CB BKN150
      TEMPO 2702/2704 VRB25G35KT 3SM TSRA BKN050CB
     FM270400 07009KT P6SM BKN070
     FM271200 13009KT P6SM BKN025
     FM271500 15007KT P6SM BKN040=

USA.gov is the U.S. government's official web portal to all federal, state and local government web resources and services.